Kansas City International Airport
KMCI : now visible

Airfield :











YOU CAN JOIN US ON...

 
LOGIN :

Register | Disclaimer

   EN    FR    IT 

 









Legend :    VFR   Marginal VFR   IFR   Intensive IFR   Very Intensive IFR
Visi :
Ceiling :
>= 8 km
>= 3000ft
5 to 8 km
1000 to 3000 ft
1500m to 5 km
500 to 1000 ft
800 to 1500m
200 to 500 ft
< 800m
< 200 ft
Symbols :   Thunderstorms  Fog  Heavy snow  Heavy precipitations  Wind > 20 kt






- Airport Elevation : 1026 ft
- IATA code : MCI


KMCI - Kansas City International

CURRENT METAR :
  • 110653Z 06008KT 10SM SCT065 22/21 A2995 RMK AO2 SLP131 T02220211

EXPIRED METARs :
  • 110553Z 09006KT 10SM R19R/4500VP6000FT CLR 23/21 A2996 RMK AO2 SLP133 T02330206 10283 20228 402940211 51005
  • 110453Z 11006KT 10SM CLR 23/22 A2995 RMK AO2 SLP133 T02330217

TAF KMCI
Valid from the 11 at 06:00 until the 12 at 06:00 UTC


110520Z 1106/1206 13006KT P6SM SCT040 SCT250
FM111200 10007KT P6SM VCSH SCT015 BKN250
FM111500 12005KT P6SM FEW040 SCT250
KZKC FIR / North America



MET'MAP, your aeronautical weather chart ! - Copyright ORBIFLY December 2007 - Disclaimer

ORBIFLY MET'MAP TEAM :

Programming & Development : Alexandra Zaïnal
Concept & original design : Baudouin d'Aumeries
Assistance for programming : Marc-Olivier Méhu
Technical & hardware support : Manuel Goepfert

Contact : metmap@orbifly.com




SOURCES & CREDITS :

   NOAA       Earth
Advisory